Latest Coastal Weather Observations for Strahan

IDT60701

Issued at 12:35 am EDT Wednesday 22 October 2014 (issued every 10 minutes, with the page automatically refreshed every 10 minutes)

About coastal observations | Map of coastal stations | Coastal observations for TAS | Marine services | Other Formats
Station Details ID: 097072 Name: STRAHAN AERODROME Lat: -42.16 Lon: 145.29 Height: 21.0 m
Data from the previous 72 hours. | See also: Recent months at Strahan
Date/Time
EDT
Temp

°C
Wind Pressure Rain
since 9am
mm
Weather Cloud Vis
km
Sea
Height
m
Swell
Dir
 
Speed
knots
Gust
knots
hPa Trend Height
m
Period
s
Dir
22/12:30am 6.3 N 5 6 1023.3 - 0.0 - - 10 - - - -
22/12:00am 7.4 N 4 5 1023.7 - 0.0 - - 10 - - - -
 
Date/Time
EDT
Temp

°C
Wind Pressure Rain
since 9am
mm
Weather Cloud Vis
km
Sea
Height
m
Swell
Dir
 
Speed
knots
Gust
knots
hPa Trend Height
m
Period
s
Dir
21/11:30pm 6.9 N 6 7 1024.0 - 0.0 - - 10 - - - -
21/11:00pm 7.0 N 5 7 1024.3 - 0.0 - - 10 - - - -
21/10:30pm 7.1 ENE 4 7 1024.5 - 0.0 - - 10 - - - -
21/10:00pm 7.3 N 4 6 1025.1 - 0.0 - - 10 - - - -
21/09:30pm 7.9 N 5 5 1025.4 - 0.0 - - 10 - - - -
21/09:00pm 8.2 N 5 7 1025.5 - 0.0 - - 10 - - - -
21/08:30pm 9.7 N 4 5 1025.5 - 0.0 - - 10 - - - -
21/08:00pm 10.7 NNW 4 5 1025.8 - 0.0 - - 10 - - - -
21/07:30pm 12.5 WNW 3 5 1025.6 - 0.0 - - 10 - - - -
21/07:00pm 14.4 W 5 6 1025.5 - 0.0 - - 10 - - - -
21/06:30pm 15.8 W 6 7 1025.6 - 0.0 - - 10 - - - -
21/06:00pm 16.7 SSW 5 7 1025.7 - 0.0 - - 10 - - - -
21/05:30pm 16.8 W 10 13 1026.1 - 0.0 - - 10 - - - -
21/05:00pm 17.8 SSW 6 11 1026.3 - 0.0 - - 10 - - - -
21/04:30pm 17.7 WSW 7 9 1026.5 - 0.0 - - 10 - - - -
21/04:00pm 17.6 WSW 8 11 1027.1 - 0.0 - - 10 - - - -
21/03:30pm 18.3 SSW 7 13 1027.3 - 0.0 - - 10 - - - -
21/03:00pm 17.8 SSW 7 11 1027.6 - 0.0 - - 10 - - - -
21/02:30pm 17.4 S 7 10 1028.1 - 0.0 - - 6 - - - -
21/02:26pm 17.4 S 7 10 1028.2 - 0.0 - - 7 - - - -
21/02:12pm 17.0 SSE 8 12 1028.3 - 0.0 - - 5 - - - -
21/02:00pm 17.0 SSE 8 11 1028.6 - 0.0 - - 9 - - - -
21/01:30pm 16.2 SSE 7 12 1029.0 - 0.0 - - 8 - - - -
21/01:00pm 15.4 SSE 8 11 1029.5 - 0.0 - - 7 - - - -
21/12:30pm 15.1 SSE 7 11 1030.0 - 0.0 - - 10 - - - -
21/12:00pm 14.8 SSE 8 13 1030.5 - 0.0 - - 8 - - - -
21/11:30am 14.1 SSE 8 11 1030.8 - 0.0 - - 10 - - - -
21/11:00am 14.2 SSE 6 9 1031.2 - 0.0 - - 10 - - - -
21/10:30am 13.8 ESE 5 10 1031.5 - 0.0 - - 9 - - - -
21/10:00am 12.5 E 5 9 1031.6 - 0.0 - - 10 - - - -
21/09:30am 12.1 NE 5 8 1032.0 - 0.0 - - 10 - - - -
21/09:00am 10.2 E 6 8 1032.2 - 0.0 - - 10 - - - -
21/08:30am 8.7 NE 6 9 1032.3 - 0.0 - - 10 - - - -
21/08:00am 6.5 NE 5 6 1032.4 - 0.0 - - 10 - - - -
21/07:30am 3.8 NE 3 4 1032.8 - 0.0 - - 10 - - - -
21/07:00am 2.3 NE 4 5 1032.5 - 0.0 - - 10 - - - -
21/06:30am 1.1 ENE 5 5 1032.5 - 0.0 - - 9 - - - -
21/06:00am 1.1 NE 2 5 1032.3 - 0.0 - - 10 - - - -
21/05:30am 1.5 NNE 3 6 1032.1 - 0.0 - - 10 - - - -
21/05:00am 2.6 E 4 5 1031.6 - 0.0 - - 10 - - - -
21/04:30am 2.7 NE 6 7 1031.4 - 0.0 - - 10 - - - -
21/04:00am 2.5 NE 6 7 1031.6 - 0.0 - - 10 - - - -
21/03:30am 2.0 N 4 5 1031.9 - 0.0 - - 10 - - - -
21/03:00am 2.0 ENE 2 4 1032.2 - 0.0 - - 10 - - - -
21/02:30am 2.9 NE 6 7 1032.5 - 0.0 - - 10 - - - -
21/02:00am 2.4 N 4 6 1032.8 - 0.0 - - 10 - - - -
21/01:30am 3.7 NNE 7 10 1032.9 - 0.0 - - 10 - - - -
21/01:00am 3.1 N 5 6 1033.2 - 0.0 - - 10 - - - -
21/12:30am 3.0 N 5 6 1033.1 - 0.0 - - 10 - - - -
21/12:00am 4.4 NNE 6 8 1033.1 - 0.0 - - 10 - - - -
 
Date/Time
EDT
Temp

°C
Wind Pressure Rain
since 9am
mm
Weather Cloud Vis
km
Sea
Height
m
Swell
Dir
 
Speed
knots
Gust
knots
hPa Trend Height
m
Period
s
Dir
20/11:30pm 3.5 NNW 4 5 1033.2 - 0.0 - - 10 - - - -
20/11:00pm 4.6 NNE 5 7 1033.3 - 0.0 - - 10 - - - -
20/10:30pm 4.9 NNE 7 9 1033.3 - 0.0 - - 10 - - - -
20/10:00pm 5.5 NE 3 5 1033.2 - 0.0 - - 10 - - - -
20/09:30pm 6.1 E 3 5 1033.3 - 0.0 - - 10 - - - -
20/09:00pm 6.6 SE 6 9 1033.0 - 0.0 - - 10 - - - -
20/08:30pm 7.6 SE 9 13 1032.7 - 0.0 - - 10 - - - -
20/08:00pm 7.9 SE 10 14 1032.5 - 0.0 - - 10 - - - -
20/07:30pm 8.8 SSE 9 12 1032.5 - 0.0 - - 10 - - - -
20/07:00pm 9.9 S 10 14 1032.4 - 0.0 - - 10 - - - -
20/06:30pm 10.8 S 10 14 1032.6 - 0.0 - - 9 - - - -
20/06:00pm 11.5 S 11 16 1032.6 - 0.0 - - 10 - - - -
20/05:30pm 11.8 S 12 17 1032.8 - 0.0 - - 10 - - - -
20/05:00pm 11.9 SSW 12 16 1033.0 - 0.0 - - 10 - - - -
20/04:30pm 12.1 SSW 14 18 1033.0 - 0.0 - - 10 - - - -
20/04:00pm 12.2 SSW 14 20 1033.0 - 0.0 - - 10 - - - -
20/03:30pm 12.4 SSW 15 21 1033.2 - 0.0 - - 10 - - - -
20/03:00pm 12.6 SSW 13 21 1033.2 - 0.0 - - 10 - - - -
20/02:30pm 12.2 SSW 14 19 1033.5 - 0.0 - - 10 - - - -
20/02:00pm 12.4 S 10 14 1033.7 - 0.0 - - 10 - - - -
20/01:30pm 12.0 S 11 15 1034.0 - 0.0 - Partly cloudy 10 - - - -
20/01:00pm 12.3 S 9 14 1034.3 - 0.0 - - 10 - - - -
20/12:30pm 11.7 S 11 15 1034.5 - 0.0 - - 10 - - - -
20/12:00pm 11.3 S 10 14 1034.6 - 0.0 - - 10 - - - -
20/11:30am 11.1 S 11 15 1034.8 - 0.0 - - 10 - - - -
20/11:00am 9.9 S 12 16 1034.9 - 0.0 - - 10 - - - -
20/10:30am 9.7 SSE 11 15 1034.8 - 0.0 - - 10 - - - -
20/10:00am 9.4 SSE 6 9 1034.9 - 0.0 - - 10 - - - -
20/09:30am 8.3 SSE 5 8 1034.6 - 0.0 - - 10 - - - -
20/09:00am 7.9 SE 5 6 1034.4 - 7.2 - - 10 - - - -
20/08:30am 6.4 E 3 5 1034.0 - 7.2 - - 10 - - - -
20/08:00am 4.1 NNE 2 3 1033.7 - 7.2 - - 10 - - - -
20/07:30am 1.0 NE 4 5 1033.2 - 7.0 - - 10 - - - -
20/07:00am 1.1 NE 4 5 1032.8 - 7.0 - - 10 - - - -
20/06:30am 0.5 NNE 5 5 1032.3 - 7.0 - - 10 - - - -
20/06:00am 0.3 NNE 4 5 1032.0 - 7.0 - - 10 - - - -
20/05:30am 0.2 ENE 3 4 1031.6 - 7.0 - - 10 - - - -
20/05:00am 0.8 ENE 4 5 1031.1 - 7.0 - - 10 - - - -
20/04:30am 1.1 E 4 7 1031.1 - 7.0 - - 10 - - - -
20/04:00am 1.7 NE 4 5 1030.7 - 7.0 - - 10 - - - -
20/03:30am 1.7 ENE 4 5 1030.7 - 7.0 - - 10 - - - -
20/03:00am 2.4 E 3 4 1030.8 - 7.0 - - 10 - - - -
20/02:30am 2.8 ENE 2 4 1030.6 - 7.0 - Partly cloudy 10 - - - -
20/02:00am 4.5 SSE 5 8 1030.2 - 7.0 - Partly cloudy 10 - - - -
20/01:30am 4.8 SSW 12 17 1030.1 - 7.0 - Partly cloudy 10 - - - -
20/01:00am 1.9 NE 3 4 1029.7 - 7.0 - Partly cloudy 10 - - - -
20/12:30am 2.7 NNW 1 3 1029.5 - 7.0 - Partly cloudy 10 - - - -
20/12:00am 3.8 CALM 0 0 1029.0 - 7.0 - - 10 - - - -
 
Date/Time
EDT
Temp

°C
Wind Pressure Rain
since 9am
mm
Weather Cloud Vis
km
Sea
Height
m
Swell
Dir
 
Speed
knots
Gust
knots
hPa Trend Height
m
Period
s
Dir
19/11:30pm 4.0 S 5 7 1028.6 - 7.0 - Partly cloudy 10 - - - -
19/11:00pm 4.3 SSW 7 10 1028.4 - 7.0 - - 10 - - - -
19/10:30pm 5.5 S 8 11 1028.1 - 7.0 - Partly cloudy 10 - - - -
19/10:00pm 6.3 S 11 17 1027.8 - 7.0 - - 10 - - - -
19/09:30pm 5.4 S 9 14 1027.3 - 7.0 - Partly cloudy 10 - - - -
19/09:00pm 5.9 S 10 13 1026.7 - 7.0 - Mostly cloudy 10 - - - -
19/08:30pm 6.8 S 13 21 1025.8 - 7.0 - Partly cloudy 10 - - - -
19/08:00pm 6.5 SSW 11 15 1025.0 - 7.0 - Partly cloudy 10 - - - -
19/07:30pm 6.8 SSW 11 18 1024.3 - 7.0 - Partly cloudy 10 - - - -
19/07:00pm 7.4 SSW 8 11 1023.5 - 7.0 - Partly cloudy 10 - - - -
19/06:30pm 7.0 SSW 15 22 1023.1 - 7.0 - Partly cloudy 10 - - - -
19/06:03pm 6.9 SW 9 13 1022.6 - 7.0 - Partly cloudy 10 - - - -
19/06:00pm 7.0 SW 10 14 1022.6 - 7.0 Rain Cloudy 10 - - - -
19/05:40pm 7.6 WSW 8 14 1022.1 - 6.0 - Partly cloudy 5 - - - -
19/05:30pm 7.8 WSW 5 7 1021.7 - 5.4 - Partly cloudy 10 - - - -
19/05:05pm 7.6 SW 6 9 1021.2 - 5.2 - Partly cloudy 10 - - - -
19/05:04pm 7.6 SW 6 9 1021.2 - 5.2 - Partly cloudy 9 - - - -
19/05:00pm 7.7 SW 6 9 1021.2 - 5.2 - Partly cloudy 7 - - - -
19/04:53pm 7.7 SW 6 8 1021.4 - 5.0 - Partly cloudy 5 - - - -
19/04:52pm 7.7 SW 6 8 1021.5 - 5.0 - Partly cloudy 5 - - - -
19/04:30pm 7.6 WSW 10 15 1021.6 - 4.6 - Partly cloudy 10 - - - -
19/04:00pm 7.9 SW 9 13 1021.5 - 4.0 - Partly cloudy 7 - - - -
19/03:30pm 7.8 SW 11 16 1021.0 - 2.8 - Partly cloudy 7 - - - -
19/03:00pm 7.9 SW 10 13 1020.2 - 2.2 Rain Cloudy 8 - - - -
19/02:30pm 8.2 SSW 11 16 1020.1 - 1.6 - Partly cloudy 8 - - - -
19/02:00pm 9.1 SW 13 19 1020.3 - 0.6 - Partly cloudy 7 - - - -
19/01:30pm 10.8 WSW 13 18 1019.8 - 0.0 - Partly cloudy 10 - - - -
19/01:00pm 11.6 WSW 11 15 1019.4 - 0.0 - Partly cloudy 10 - - - -
19/12:30pm 11.6 WSW 10 13 1019.8 - 0.0 - Partly cloudy 10 - - - -
19/12:15pm 11.1 WSW 10 12 1019.6 - 0.0 - Partly cloudy 10 - - - -
19/12:00pm 11.3 WSW 9 11 1019.3 - 0.0 - Cloudy 10 - - - -
19/11:30am 11.6 WNW 10 12 1019.3 - 0.0 - Partly cloudy 10 - - - -
19/11:27am 11.6 WNW 10 13 1019.3 - 0.0 - Partly cloudy 10 - - - -
19/11:00am 11.8 WNW 9 13 1019.2 - 0.0 - Partly cloudy 10 - - - -
19/10:30am 11.4 WNW 9 12 1019.2 - 0.0 - Partly cloudy 10 - - - -
19/10:00am 11.3 NW 9 12 1019.0 - 0.0 - Partly cloudy 10 - - - -
19/09:34am 11.0 W 9 14 1019.1 - 0.0 - Partly cloudy 10 - - - -
19/09:30am 10.9 W 11 15 1019.4 - 0.0 - Partly cloudy 10 - - - -
19/09:09am 11.1 WNW 11 17 1019.0 - 0.0 - Partly cloudy 10 - - - -
19/09:00am 11.0 WNW 11 17 1018.9 - 0.2 - Cloudy 10 - - - -
19/08:30am 11.1 WNW 9 11 1018.4 - 0.2 - Partly cloudy 10 - - - -
19/08:00am 11.0 NW 5 6 1017.9 - 0.2 - Partly cloudy 9 - - - -
19/07:52am 10.9 NW 4 6 1017.5 - 0.2 - Partly cloudy 8 - - - -
19/07:51am 10.8 NW 4 6 1017.4 - 0.2 - Partly cloudy 8 - - - -
19/07:30am 10.6 W 8 11 1017.6 - 0.2 - Partly cloudy 3 - - - -
19/07:16am 10.7 W 11 15 1017.8 - 0.2 - Partly cloudy 5 - - - -
19/07:00am 10.7 W 10 15 1017.9 - 0.2 - Cloudy 9 - - - -
19/06:43am 10.5 W 10 14 1017.3 - 0.2 - Cloudy 7 - - - -
19/06:30am 10.7 W 9 12 1017.5 - 0.2 - Partly cloudy 5 - - - -
19/06:00am 10.5 W 11 14 1016.8 - 0.2 Recent precip. Cloudy 3 - - - -
19/05:30am 11.6 NW 13 17 1016.7 - 0.0 - Partly cloudy 2 - - - -
19/05:00am 11.7 NW 11 15 1016.1 - 0.0 - Cloudy 2 - - - -
19/04:34am 12.1 NW 14 18 1016.1 - 0.0 - Partly cloudy 3 - - - -
19/04:30am 12.2 WNW 15 20 1016.1 - 0.0 - Partly cloudy 5 - - - -
19/04:28am 12.2 WNW 15 20 1016.1 - 0.0 - Partly cloudy 5 - - - -
19/04:21am 12.3 WNW 17 21 1016.1 - 0.0 - Partly cloudy 7 - - - -
19/04:11am 12.8 WNW 17 22 1016.1 - 0.0 - Partly cloudy 9 - - - -
19/04:00am 13.6 NW 17 24 1015.9 - 0.0 - Partly cloudy 10 - - - -
19/03:30am 14.2 NW 17 23 1015.6 - 0.0 - Partly cloudy 10 - - - -
19/03:00am 15.2 NNW 21 28 1015.3 - 0.0 - Mostly cloudy 10 - - - -
19/02:51am 15.2 NNW 15 28 1015.2 - 0.0 - - 10 - - - -
19/02:30am 14.6 N 13 20 1015.4 - 0.0 - - 10 - - - -
19/02:00am 15.5 N 15 22 1015.1 - 0.0 - Partly cloudy 10 - - - -
19/01:44am 15.7 N 15 25 1015.0 - 0.0 - Partly cloudy 10 - - - -
19/01:30am 15.9 N 16 22 1015.0 - 0.0 - Cloudy 10 - - - -
19/01:28am 15.9 N 16 26 1015.0 - 0.0 - Cloudy 10 - - - -
19/01:00am 16.3 N 17 23 1015.2 - 0.0 - Partly cloudy 10 - - - -
19/12:44am 16.1 N 16 26 1015.2 - 0.0 - Partly cloudy 10 - - - -

Other Formats:

Comma delimited format used in spreadsheet applications
http://www.bom.gov.au/fwo/IDT60701/IDT60701.94956.axf

JavaScript Object Notation format (JSON) in row-major order
http://www.bom.gov.au/fwo/IDT60701/IDT60701.94956.json